Time;durP1;ratioP1;P1;durP2;ratioP2;P2;SDS_P1;SDS_P2;PMS_P1;PMS_P2;Temp;Humidity;BMP_temperature;BMP_pressure;BME280_temperature;BME280_humidity;BME280_pressure;Samples;Min_cycle;Max_cycle;Signal;HPM_P1;HPM_P2
2023/08/12 00:02:19;;;;;;;8.40;6.60;;;;;;;23.22;47.30;101409.06;5053732;28;20037;-82
2023/08/12 00:04:49;;;;;;;9.73;7.28;;;;;;;23.18;47.63;101410.50;5058005;28;20532;-82
2023/08/12 00:07:17;;;;;;;9.60;6.88;;;;;;;23.12;47.68;101412.16;5050509;28;20048;-83
2023/08/12 00:09:45;;;;;;;9.50;7.28;;;;;;;23.07;47.50;101405.47;5046319;28;20081;-84
2023/08/12 00:12:13;;;;;;;8.98;6.50;;;;;;;23.02;47.91;101403.28;5070331;28;20036;-83
2023/08/12 00:14:42;;;;;;;9.98;7.28;;;;;;;22.99;47.96;101403.72;5055489;28;20047;-83
2023/08/12 00:17:10;;;;;;;9.52;7.47;;;;;;;22.95;48.19;101396.78;5052339;28;20515;-84
2023/08/12 00:19:38;;;;;;;9.77;7.03;;;;;;;22.92;48.44;101397.22;5059971;28;20130;-83
2023/08/12 00:22:08;;;;;;;10.40;6.97;;;;;;;22.89;48.35;101397.59;5054141;28;20044;-83
2023/08/12 00:24:36;;;;;;;10.02;7.75;;;;;;;22.85;48.77;101401.84;5053106;28;20048;-83
2023/08/12 00:27:04;;;;;;;9.27;6.38;;;;;;;22.81;48.40;101395.84;5069121;28;20084;-83
2023/08/12 00:29:32;;;;;;;11.13;7.22;;;;;;;22.80;48.85;101394.09;5053651;28;20098;-82
2023/08/12 00:32:00;;;;;;;8.27;6.95;;;;;;;22.78;48.64;101389.78;5069203;28;20052;-84
2023/08/12 00:34:28;;;;;;;9.95;6.88;;;;;;;22.76;49.02;101397.47;5043381;28;20122;-83
2023/08/12 00:36:57;;;;;;;11.85;7.57;;;;;;;22.73;48.56;101382.03;5050964;28;20523;-82
2023/08/12 00:39:26;;;;;;;9.48;6.90;;;;;;;22.74;49.17;101382.91;5051500;28;20051;-83
2023/08/12 00:41:54;;;;;;;10.23;7.50;;;;;;;22.69;49.11;101391.84;5046250;28;20075;-83
2023/08/12 00:44:23;;;;;;;10.32;7.32;;;;;;;22.68;49.22;101387.34;5043868;28;20041;-83
2023/08/12 00:46:51;;;;;;;7.65;6.25;;;;;;;22.66;49.05;101397.84;5046476;28;20059;-86
2023/08/12 00:49:19;;;;;;;8.38;6.22;;;;;;;22.63;49.11;101396.31;5049098;28;20357;-86
2023/08/12 00:51:50;;;;;;;9.68;7.10;;;;;;;22.63;49.46;101393.53;5054774;28;20048;-84
2023/08/12 00:54:20;;;;;;;8.23;6.97;;;;;;;22.59;49.22;101383.00;5045717;28;20041;-84
2023/08/12 00:56:50;;;;;;;10.63;8.27;;;;;;;22.56;49.46;101359.13;5053095;28;20041;-84
2023/08/12 00:59:21;;;;;;;10.55;7.60;;;;;;;22.50;49.33;101359.91;5066410;28;20131;-85
2023/08/12 01:01:50;;;;;;;11.02;7.90;;;;;;;22.47;49.43;101367.81;5064157;28;20041;-85
2023/08/12 01:04:18;;;;;;;10.00;7.88;;;;;;;22.44;49.28;101368.19;5035621;28;20052;-84
2023/08/12 01:06:46;;;;;;;10.98;7.13;;;;;;;22.39;49.32;101366.03;5035922;28;20037;-84
2023/08/12 01:09:15;;;;;;;11.82;8.25;;;;;;;22.38;49.56;101369.00;5037477;28;20048;-86
2023/08/12 01:11:51;;;;;;;10.23;7.55;;;;;;;22.37;50.29;101370.94;5062806;28;20044;-84
2023/08/12 01:14:26;;;;;;;10.95;8.85;;;;;;;22.34;50.58;101367.69;5041532;28;20099;-85
2023/08/12 01:17:00;;;;;;;11.40;8.13;;;;;;;22.31;50.78;101355.00;5030558;28;20053;-86
2023/08/12 01:19:33;;;;;;;10.95;8.55;;;;;;;22.28;50.81;101359.03;5034941;28;20118;-86
2023/08/12 01:22:03;;;;;;;11.85;8.27;;;;;;;22.23;50.04;101357.94;5035874;28;20087;-86
2023/08/12 01:24:37;;;;;;;12.75;8.27;;;;;;;22.25;51.49;101350.22;5033879;28;20099;-84
2023/08/12 01:27:06;;;;;;;10.07;7.22;;;;;;;22.21;50.25;101355.34;5041798;28;20045;-85
2023/08/12 01:29:35;;;;;;;10.98;7.70;;;;;;;22.19;50.14;101351.00;5064588;28;20037;-85
2023/08/12 01:32:12;;;;;;;9.70;7.03;;;;;;;22.20;51.49;101350.81;5060416;28;20060;-85
2023/08/12 01:34:47;;;;;;;10.77;7.40;;;;;;;22.18;50.44;101349.28;5070363;28;20037;-85
2023/08/12 01:37:24;;;;;;;10.82;7.57;;;;;;;22.17;51.55;101340.09;5057853;28;20055;-84
2023/08/12 01:39:55;;;;;;;9.40;7.53;;;;;;;22.15;51.00;101336.63;5073105;28;20043;-85
2023/08/12 01:42:25;;;;;;;10.10;7.67;;;;;;;22.11;50.61;101335.28;5045339;28;20068;-84
2023/08/12 01:44:55;;;;;;;9.60;6.72;;;;;;;22.12;50.64;101333.34;5076158;28;20076;-83
2023/08/12 01:47:23;;;;;;;9.85;7.13;;;;;;;22.11;50.50;101338.06;5080419;28;20051;-85
2023/08/12 01:49:51;;;;;;;9.45;6.88;;;;;;;22.10;50.85;101332.69;5042960;28;20036;-86
2023/08/12 01:52:19;;;;;;;9.98;6.95;;;;;;;22.10;51.10;101336.34;5034825;28;20049;-84
2023/08/12 01:54:47;;;;;;;7.75;6.10;;;;;;;22.10;50.71;101324.31;5035025;28;20435;-84
2023/08/12 01:57:16;;;;;;;10.10;7.15;;;;;;;22.10;50.97;101319.63;5066232;28;20041;-85
2023/08/12 01:59:45;;;;;;;8.45;6.78;;;;;;;22.08;51.01;101313.41;5032275;28;20041;-85
2023/08/12 02:02:13;;;;;;;8.95;6.35;;;;;;;22.09;51.34;101314.25;5045205;28;20531;-83
2023/08/12 02:04:42;;;;;;;9.85;6.53;;;;;;;22.08;50.87;101310.59;5043957;28;20044;-85
2023/08/12 02:07:11;;;;;;;10.27;7.38;;;;;;;22.07;50.88;101314.47;5049777;28;20053;-84
2023/08/12 02:09:39;;;;;;;9.32;7.07;;;;;;;22.06;51.02;101307.16;5058517;28;20376;-84
2023/08/12 02:12:08;;;;;;;8.77;6.20;;;;;;;22.06;50.79;101314.66;5052464;28;20047;-85
2023/08/12 02:14:37;;;;;;;7.75;6.55;;;;;;;22.07;51.22;101308.00;5050347;28;20066;-84
2023/08/12 02:17:05;;;;;;;9.55;6.47;;;;;;;22.04;51.19;101302.81;5046415;28;20041;-85
2023/08/12 02:19:34;;;;;;;9.68;6.32;;;;;;;22.05;51.24;101301.78;5047660;28;20040;-85
2023/08/12 02:22:03;;;;;;;7.82;6.45;;;;;;;22.04;51.65;101302.81;5070034;28;20053;-86
2023/08/12 02:24:31;;;;;;;8.57;6.75;;;;;;;22.05;51.41;101298.97;5043514;28;20040;-84
2023/08/12 02:26:59;;;;;;;9.50;6.65;;;;;;;22.05;51.44;101298.97;5044634;28;20052;-84
2023/08/12 02:29:27;;;;;;;8.80;6.20;;;;;;;22.04;51.34;101289.75;5049743;28;20512;-85
2023/08/12 02:31:57;;;;;;;8.65;5.25;;;;;;;22.06;51.18;101293.22;5052299;28;20420;-83
2023/08/12 02:34:25;;;;;;;7.63;5.45;;;;;;;22.05;51.35;101304.56;5045303;28;20247;-83
2023/08/12 02:36:53;;;;;;;7.32;5.50;;;;;;;22.06;51.47;101300.72;5044434;28;20037;-84
2023/08/12 02:39:21;;;;;;;8.68;5.65;;;;;;;22.06;51.35;101309.06;5040667;28;20060;-85
2023/08/12 02:41:49;;;;;;;9.77;5.53;;;;;;;22.07;51.70;101302.44;5046031;28;20053;-86
2023/08/12 02:44:18;;;;;;;8.30;5.63;;;;;;;22.08;51.52;101302.25;5041764;28;20136;-87
2023/08/12 02:46:46;;;;;;;6.75;5.00;;;;;;;22.08;51.57;101304.16;5048999;28;20033;-84
2023/08/12 02:49:15;;;;;;;6.80;4.80;;;;;;;22.10;51.78;101293.66;5049777;28;20202;-85
2023/08/12 02:51:43;;;;;;;6.70;4.70;;;;;;;22.08;51.44;101288.31;5051776;28;20040;-86
2023/08/12 02:54:11;;;;;;;6.60;4.57;;;;;;;22.08;51.33;101293.03;5047862;28;20565;-84
2023/08/12 02:56:39;;;;;;;6.75;4.45;;;;;;;22.08;51.43;101298.59;5062132;28;20033;-84
2023/08/12 02:59:08;;;;;;;6.28;4.28;;;;;;;22.08;51.38;101301.38;5051541;28;20519;-85
2023/08/12 03:01:36;;;;;;;5.75;4.10;;;;;;;22.07;51.10;101294.06;5044577;28;20040;-84
2023/08/12 03:04:04;;;;;;;6.63;3.67;;;;;;;22.07;50.86;101297.72;5048245;28;20049;-85
2023/08/12 03:06:34;;;;;;;6.32;3.53;;;;;;;22.08;51.20;101279.09;5050705;28;20094;-84
2023/08/12 03:09:02;;;;;;;6.10;4.13;;;;;;;22.05;51.24;101291.47;5053322;28;20047;-85
2023/08/12 03:11:30;;;;;;;6.75;4.25;;;;;;;22.04;51.25;101274.97;5048468;28;20136;-82
2023/08/12 03:14:00;;;;;;;6.40;4.50;;;;;;;22.04;51.28;101272.16;5046412;28;20476;-83
2023/08/12 03:16:28;;;;;;;6.68;4.28;;;;;;;22.03;51.52;101260.16;5048319;28;20534;-84
2023/08/12 03:18:57;;;;;;;7.55;5.05;;;;;;;22.02;51.32;101257.56;5057731;28;20566;-83
2023/08/12 03:21:25;;;;;;;7.05;4.93;;;;;;;22.00;51.48;101255.00;5051107;28;20044;-83
2023/08/12 03:23:54;;;;;;;8.18;5.43;;;;;;;22.02;51.49;101257.56;5057693;28;20044;-83
2023/08/12 03:26:23;;;;;;;10.07;5.65;;;;;;;21.99;51.27;101252.41;5049344;28;20068;-83
2023/08/12 03:28:54;;;;;;;7.15;4.82;;;;;;;21.98;51.73;101251.53;5048754;28;20504;-83
2023/08/12 03:31:27;;;;;;;7.32;4.78;;;;;;;21.97;51.55;101248.94;5049140;28;20053;-84
2023/08/12 03:34:08;;;;;;;7.53;4.90;;;;;;;21.98;51.76;101250.69;5054538;28;20139;-83
2023/08/12 03:36:37;;;;;;;7.63;5.00;;;;;;;21.96;51.59;101250.88;5050191;28;20559;-83
2023/08/12 03:39:07;;;;;;;8.88;5.80;;;;;;;21.98;51.90;101250.69;5045766;28;20044;-84
2023/08/12 03:41:35;;;;;;;7.25;5.60;;;;;;;21.95;51.59;101249.16;5050938;28;20041;-84
2023/08/12 03:44:06;;;;;;;9.25;6.15;;;;;;;21.97;51.87;101248.94;5054586;28;20617;-83
2023/08/12 03:46:34;;;;;;;9.23;6.47;;;;;;;21.96;51.83;101236.06;5048181;28;20570;-84
2023/08/12 03:49:03;;;;;;;10.95;8.90;;;;;;;21.95;51.62;101228.78;5053063;28;20515;-84
2023/08/12 03:51:31;;;;;;;12.25;9.27;;;;;;;21.92;51.40;101218.91;5052439;28;20453;-84
2023/08/12 03:54:00;;;;;;;15.00;10.45;;;;;;;21.91;51.43;101208.81;5058040;28;20044;-83
2023/08/12 03:56:29;;;;;;;11.85;10.02;;;;;;;21.89;51.30;101200.63;5044588;28;20040;-84
2023/08/12 03:58:59;;;;;;;10.88;9.40;;;;;;;21.85;51.57;101202.06;5054471;28;20047;-84
2023/08/12 04:01:27;;;;;;;11.35;9.38;;;;;;;21.84;51.72;101200.38;5052093;28;20043;-85
2023/08/12 04:03:56;;;;;;;12.95;9.88;;;;;;;21.81;51.44;101192.41;5057031;28;20044;-86
2023/08/12 04:06:24;;;;;;;12.57;8.73;;;;;;;21.80;52.02;101181.47;5058811;28;20059;-85
2023/08/12 04:08:52;;;;;;;11.43;8.27;;;;;;;21.77;52.03;101177.13;5048985;28;20516;-86
2023/08/12 04:11:20;;;;;;;9.65;7.15;;;;;;;21.75;51.94;101176.50;5051442;28;20045;-84
2023/08/12 04:13:50;;;;;;;12.15;8.75;;;;;;;21.77;52.22;101181.84;5049794;28;20048;-85
2023/08/12 04:16:18;;;;;;;9.57;7.30;;;;;;;21.73;52.06;101186.09;5054604;28;20071;-85
2023/08/12 04:18:46;;;;;;;10.68;7.47;;;;;;;21.72;51.94;101188.03;5056088;28;20040;-86
2023/08/12 04:21:14;;;;;;;8.50;5.93;;;;;;;21.71;52.03;101193.78;5054826;28;20051;-87
2023/08/12 04:23:42;;;;;;;7.97;5.50;;;;;;;21.71;52.12;101193.78;5054410;28;20045;-85
2023/08/12 04:26:11;;;;;;;8.60;6.05;;;;;;;21.69;52.32;101188.41;5047994;28;20051;-87
2023/08/12 04:28:39;;;;;;;8.30;5.43;;;;;;;21.69;52.55;101194.00;5057870;28;20040;-84
2023/08/12 04:31:09;;;;;;;7.22;5.25;;;;;;;21.72;52.37;101196.38;5046789;28;20273;-83
2023/08/12 04:33:40;;;;;;;7.57;5.38;;;;;;;21.69;52.42;101198.69;5050372;28;20128;-83
2023/08/12 04:36:09;;;;;;;7.40;5.30;;;;;;;21.70;52.38;101192.06;5052080;28;20049;-84
2023/08/12 04:38:39;;;;;;;6.80;4.90;;;;;;;21.70;52.49;101189.28;5053700;28;20060;-86
2023/08/12 04:41:09;;;;;;;6.80;5.03;;;;;;;21.69;52.46;101182.84;5052998;28;20086;-85
2023/08/12 04:43:38;;;;;;;6.85;4.95;;;;;;;21.70;52.12;101179.00;5046825;28;20039;-86
2023/08/12 04:46:08;;;;;;;6.88;5.03;;;;;;;21.68;52.57;101175.59;5055488;28;20040;-85
2023/08/12 04:48:38;;;;;;;6.38;4.47;;;;;;;21.69;52.37;101176.41;5052950;28;20098;-87
2023/08/12 04:51:07;;;;;;;8.52;4.68;;;;;;;21.66;52.21;101165.69;5074900;28;20092;-86
2023/08/12 04:53:35;;;;;;;6.65;4.75;;;;;;;21.64;52.24;101171.44;5046526;28;20032;-85
2023/08/12 04:56:03;;;;;;;5.90;4.43;;;;;;;21.64;52.24;101168.66;5051716;28;20148;-85
2023/08/12 04:58:32;;;;;;;6.35;4.30;;;;;;;21.65;52.31;101177.88;5049126;28;20039;-86
2023/08/12 05:01:02;;;;;;;7.35;4.90;;;;;;;21.65;52.29;101166.75;5055066;28;20048;-85
2023/08/12 05:03:33;;;;;;;7.00;4.32;;;;;;;21.64;52.30;101173.38;5050726;28;20108;-86
2023/08/12 05:06:02;;;;;;;6.57;4.18;;;;;;;21.64;52.42;101177.03;5066599;28;20033;-87
2023/08/12 05:08:31;;;;;;;6.70;4.13;;;;;;;21.63;52.38;101168.88;5053868;28;20057;-85
2023/08/12 05:11:00;;;;;;;5.38;4.15;;;;;;;21.62;52.50;101165.22;5053931;28;20040;-85
2023/08/12 05:13:29;;;;;;;8.20;4.63;;;;;;;21.64;52.49;101170.59;5051524;28;20136;-86
2023/08/12 05:15:58;;;;;;;8.55;5.03;;;;;;;21.63;52.96;101174.44;5055295;28;20139;-84
2023/08/12 05:18:26;;;;;;;6.18;4.38;;;;;;;21.64;52.46;101176.16;5056644;28;20048;-84
2023/08/12 05:20:54;;;;;;;6.00;4.20;;;;;;;21.64;52.60;101168.66;5051099;28;20067;-86
2023/08/12 05:23:24;;;;;;;6.60;4.38;;;;;;;21.67;52.46;101168.28;5051295;28;20098;-85
2023/08/12 05:25:52;;;;;;;7.53;5.18;;;;;;;21.66;52.82;101174.03;5052636;28;20067;-86
2023/08/12 05:28:22;;;;;;;8.30;4.90;;;;;;;21.65;52.90;101161.19;5066583;28;20041;-86
2023/08/12 05:30:51;;;;;;;7.95;5.18;;;;;;;21.66;52.35;101157.34;5045942;28;20048;-85
2023/08/12 05:33:19;;;;;;;6.93;4.57;;;;;;;21.66;52.70;101154.53;5054524;28;20504;-85
2023/08/12 05:35:49;;;;;;;6.72;4.35;;;;;;;21.68;52.88;101160.78;5054687;28;20468;-86
2023/08/12 05:38:17;;;;;;;6.50;5.00;;;;;;;21.67;52.73;101153.50;5050636;28;20068;-85
2023/08/12 05:40:47;;;;;;;6.53;4.93;;;;;;;21.69;52.50;101155.00;5055773;28;20052;-86
2023/08/12 05:43:14;;;;;;;6.97;5.03;;;;;;;21.67;52.77;101150.69;5051820;28;20555;-85
2023/08/12 05:45:50;;;;;;;6.30;4.40;;;;;;;21.67;52.37;101151.56;5052349;28;20111;-84
2023/08/12 05:48:20;;;;;;;6.70;4.35;;;;;;;21.67;52.73;101159.06;5049157;28;20040;-84
2023/08/12 05:51:04;;;;;;;5.93;4.20;;;;;;;21.68;52.94;101167.22;5072813;27;20755;-75
2023/08/12 05:53:32;;;;;;;6.55;3.90;;;;;;;21.66;52.90;101166.56;5063938;28;20037;-74
2023/08/12 05:56:00;;;;;;;7.05;4.40;;;;;;;21.66;52.65;101166.56;5063030;28;20064;-75
2023/08/12 05:58:28;;;;;;;6.50;4.25;;;;;;;21.66;52.70;101163.78;5062124;28;20044;-75
2023/08/12 06:00:56;;;;;;;6.05;4.20;;;;;;;21.66;52.38;101172.13;5064590;28;20072;-75
2023/08/12 06:03:24;;;;;;;5.47;4.00;;;;;;;21.66;52.74;101176.84;5065223;28;20108;-75
2023/08/12 06:05:53;;;;;;;5.28;3.65;;;;;;;21.65;52.43;101177.88;5063396;28;20404;-75
2023/08/12 06:08:22;;;;;;;6.13;3.40;;;;;;;21.67;52.87;101176.63;5061889;28;20045;-75
2023/08/12 06:10:50;;;;;;;6.03;3.97;;;;;;;21.63;52.75;101174.44;5063989;28;20064;-75
2023/08/12 06:13:18;;;;;;;4.40;3.65;;;;;;;21.61;52.68;101163.47;5064943;28;20055;-75
2023/08/12 06:15:46;;;;;;;6.00;4.00;;;;;;;21.59;52.82;101161.97;5063117;28;20055;-75
2023/08/12 06:18:14;;;;;;;5.90;3.60;;;;;;;21.57;52.98;101150.16;5063911;28;20048;-76
2023/08/12 06:20:42;;;;;;;6.07;3.80;;;;;;;21.55;52.78;101152.28;5053780;28;20036;-76
2023/08/12 06:23:10;;;;;;;4.60;3.60;;;;;;;21.53;52.72;101156.13;5048459;28;20130;-76
2023/08/12 06:25:40;;;;;;;6.00;3.88;;;;;;;21.52;53.10;101154.41;5055515;28;20458;-75
2023/08/12 06:28:09;;;;;;;4.90;3.70;;;;;;;21.48;53.21;101143.88;5056939;28;20392;-76
2023/08/12 06:30:37;;;;;;;5.28;3.65;;;;;;;21.46;53.13;101138.50;5055432;28;20080;-76
2023/08/12 06:33:05;;;;;;;6.90;3.92;;;;;;;21.44;53.12;101146.19;5056364;28;20625;-76
2023/08/12 06:35:33;;;;;;;6.13;3.88;;;;;;;21.42;53.21;101137.19;5056655;28;20052;-76
2023/08/12 06:38:02;;;;;;;5.53;4.03;;;;;;;21.39;53.28;101137.56;5057087;28;20053;-76
2023/08/12 06:40:30;;;;;;;5.10;3.72;;;;;;;21.36;53.35;101139.88;5052971;28;20138;-76
2023/08/12 06:43:00;;;;;;;6.13;3.83;;;;;;;21.34;53.31;101133.69;5056559;28;20127;-75
2023/08/12 06:45:28;;;;;;;5.15;3.53;;;;;;;21.28;53.40;101135.31;5055301;28;20099;-76
2023/08/12 06:47:56;;;;;;;5.70;3.67;;;;;;;21.24;53.54;101145.09;5054965;28;20144;-76
2023/08/12 06:50:24;;;;;;;5.68;3.72;;;;;;;21.22;53.71;101149.13;5051261;28;20112;-75
2023/08/12 06:52:52;;;;;;;5.60;3.58;;;;;;;21.18;53.62;101143.13;5054847;28;20524;-75
2023/08/12 06:55:20;;;;;;;9.88;3.72;;;;;;;21.14;53.79;101137.06;5056502;28;20183;-75
2023/08/12 06:57:48;;;;;;;5.47;3.67;;;;;;;21.11;54.01;101120.75;5058326;28;20040;-75
2023/08/12 07:03:02;;;;;;;4.50;3.47;;;;;;;21.05;53.70;101092.84;5043126;28;20566;-75
2023/08/12 07:05:30;;;;;;;6.07;3.88;;;;;;;21.03;54.38;101109.75;5012362;28;20049;-76
2023/08/12 07:07:58;;;;;;;4.25;3.55;;;;;;;21.02;54.39;101126.66;5009108;28;20097;-75
2023/08/12 07:10:27;;;;;;;6.68;3.83;;;;;;;21.00;54.23;101140.75;5015008;28;20041;-76
2023/08/12 07:12:57;;;;;;;4.93;3.67;;;;;;;20.99;54.46;101141.81;5032657;28;20095;-76
2023/08/12 07:15:26;;;;;;;5.63;3.92;;;;;;;21.00;54.48;101131.56;5030201;28;20140;-76
2023/08/12 07:17:54;;;;;;;4.95;3.65;;;;;;;20.98;54.72;101130.88;5012102;28;20367;-75
2023/08/12 07:20:22;;;;;;;6.35;4.13;;;;;;;20.99;54.60;101138.16;5028442;28;20042;-76
2023/08/12 07:22:50;;;;;;;6.10;4.25;;;;;;;20.98;54.85;101123.41;5016612;28;20060;-76
2023/08/12 07:25:18;;;;;;;5.28;3.97;;;;;;;20.99;55.04;101139.03;5031078;28;20042;-76
2023/08/12 07:27:46;;;;;;;5.13;3.75;;;;;;;20.99;55.11;101144.59;5018173;28;20659;-76
2023/08/12 07:30:14;;;;;;;5.78;4.05;;;;;;;21.01;55.39;101147.19;5029198;28;20041;-75
2023/08/12 07:32:44;;;;;;;5.55;3.92;;;;;;;21.04;55.26;101155.13;5024400;28;20045;-77
2023/08/12 07:35:12;;;;;;;6.50;4.30;;;;;;;21.02;55.60;101140.56;5028950;28;20046;-77
2023/08/12 07:37:40;;;;;;;5.22;3.97;;;;;;;21.03;55.33;101126.44;5032308;28;20045;-79
2023/08/12 07:40:09;;;;;;;6.53;4.10;;;;;;;21.04;55.79;101139.28;5027788;28;20072;-78
2023/08/12 07:42:37;;;;;;;5.85;3.90;;;;;;;21.04;55.59;101141.22;5032957;28;20132;-75
2023/08/12 07:45:07;;;;;;;5.95;4.03;;;;;;;21.06;55.36;101137.19;5032311;28;20041;-76
2023/08/12 07:47:35;;;;;;;5.13;3.80;;;;;;;21.06;55.50;101145.53;5032619;28;20111;-75
2023/08/12 07:50:09;;;;;;;4.97;3.60;;;;;;;21.07;55.34;101138.06;5032127;28;20076;-76
2023/08/12 07:52:37;;;;;;;6.45;3.58;;;;;;;21.07;55.31;101129.69;5030967;28;20034;-75
2023/08/12 07:55:06;;;;;;;4.35;3.25;;;;;;;21.08;55.38;101137.84;5023379;28;20045;-76
2023/08/12 07:57:34;;;;;;;4.45;3.08;;;;;;;21.09;55.39;101135.94;5031493;28;20046;-76
2023/08/12 08:00:02;;;;;;;4.75;3.25;;;;;;;21.09;55.44;101134.03;5024988;28;20140;-65
2023/08/12 08:02:31;;;;;;;5.35;3.65;;;;;;;21.10;55.58;101134.88;5030279;28;20099;-76
2023/08/12 08:04:59;;;;;;;5.72;3.45;;;;;;;21.11;55.68;101133.81;5013395;28;20123;-74
2023/08/12 08:07:29;;;;;;;4.38;3.30;;;;;;;21.13;55.37;101131.69;5030494;28;20099;-74
2023/08/12 08:09:57;;;;;;;4.80;3.25;;;;;;;21.12;55.58;101133.59;5031265;28;20049;-74
2023/08/12 08:12:25;;;;;;;5.25;3.75;;;;;;;21.13;55.42;101135.34;5030037;28;20072;-74
2023/08/12 08:14:53;;;;;;;4.80;3.00;;;;;;;21.14;55.55;101125.06;5002371;28;20045;-59
2023/08/12 08:17:21;;;;;;;5.05;3.45;;;;;;;21.14;55.40;101123.16;5022429;28;20049;-62
2023/08/12 08:19:49;;;;;;;4.40;3.40;;;;;;;21.15;55.55;101121.22;5020007;28;20105;-61
2023/08/12 08:22:17;;;;;;;5.20;3.75;;;;;;;21.16;55.55;101109.03;5020079;28;20076;-62
2023/08/12 08:24:47;;;;;;;5.82;3.72;;;;;;;21.18;55.62;101108.84;5019458;28;20041;-59
2023/08/12 08:27:15;;;;;;;4.57;3.35;;;;;;;21.17;55.45;101115.47;5021562;28;20060;-60
2023/08/12 08:29:43;;;;;;;5.93;3.17;;;;;;;21.18;55.79;101119.97;5020136;28;20068;-57
2023/08/12 08:32:11;;;;;;;4.57;2.83;;;;;;;21.19;55.70;101130.06;5002961;28;20041;-63
2023/08/12 08:34:40;;;;;;;4.55;2.95;;;;;;;21.20;55.81;101124.28;5017612;28;20630;-62
2023/08/12 08:37:08;;;;;;;5.28;3.35;;;;;;;21.23;55.80;101120.25;5023589;28;20045;-61
2023/08/12 08:39:36;;;;;;;5.10;3.40;;;;;;;21.24;55.89;101113.63;5021031;28;20125;-61
2023/08/12 08:42:06;;;;;;;4.55;3.05;;;;;;;21.27;55.66;101121.63;5020533;28;20046;-62
2023/08/12 08:44:35;;;;;;;4.63;3.20;;;;;;;21.26;55.63;101114.31;5019188;28;20045;-62
2023/08/12 08:47:04;;;;;;;4.72;3.20;;;;;;;21.27;55.59;101128.03;5022476;28;20057;-63
2023/08/12 08:49:33;;;;;;;4.32;2.70;;;;;;;21.28;55.27;101126.09;5020316;28;20054;-62
2023/08/12 08:52:01;;;;;;;3.85;2.60;;;;;;;21.30;55.55;101127.63;5021893;28;20077;-61
2023/08/12 08:54:29;;;;;;;4.90;2.60;;;;;;;21.31;55.40;101140.50;5017584;28;20160;-61
2023/08/12 08:56:57;;;;;;;3.55;2.60;;;;;;;21.32;55.35;101133.88;5021372;28;20164;-59
2023/08/12 08:59:40;;;;;;;4.50;2.35;;;;;;;21.33;55.16;101141.16;5022026;28;20045;-64
2023/08/12 09:02:13;;;;;;;4.38;2.35;;;;;;;21.34;55.10;101142.03;5021390;28;20466;-60
2023/08/12 09:04:42;;;;;;;3.78;1.98;;;;;;;21.34;55.11;101130.88;5001529;28;20042;-60
2023/08/12 09:07:11;;;;;;;3.85;2.10;;;;;;;21.34;55.11;101133.69;5017822;28;20124;-63
2023/08/12 09:09:40;;;;;;;3.78;2.15;;;;;;;21.34;54.95;101128.97;4999933;28;20053;-60
2023/08/12 09:12:10;;;;;;;5.32;2.30;;;;;;;21.36;55.28;101137.97;5022820;28;20091;-61
2023/08/12 09:14:40;;;;;;;3.30;2.00;;;;;;;21.37;55.25;101131.34;5028270;28;20052;-60
2023/08/12 09:17:08;;;;;;;4.07;2.08;;;;;;;21.37;55.30;101136.03;5028152;28;20508;-59
2023/08/12 09:19:36;;;;;;;2.72;1.90;;;;;;;21.37;55.78;101136.91;5029164;28;20052;-60
2023/08/12 09:22:05;;;;;;;4.18;1.75;;;;;;;21.38;55.28;101135.84;5027259;28;20111;-61
2023/08/12 09:24:33;;;;;;;3.83;1.77;;;;;;;21.39;55.50;101143.16;5030831;28;20072;-68
2023/08/12 09:27:02;;;;;;;3.65;1.85;;;;;;;21.42;55.86;101144.69;5006987;28;20046;-62
2023/08/12 09:29:31;;;;;;;3.90;1.95;;;;;;;21.44;55.65;101142.53;5012256;28;20932;-64
2023/08/12 09:32:13;;;;;;;3.13;1.67;;;;;;;21.48;56.38;101132.72;5020524;28;20061;-63
2023/08/12 09:34:48;;;;;;;3.40;2.00;;;;;;;21.48;56.42;101139.16;5019754;28;20042;-61
2023/08/12 09:37:17;;;;;;;2.67;1.67;;;;;;;21.50;55.79;101144.53;5019534;28;20156;-61
2023/08/12 09:39:45;;;;;;;3.00;1.67;;;;;;;21.53;55.78;101135.78;5019502;28;20045;-62
2023/08/12 09:42:14;;;;;;;4.25;1.70;;;;;;;21.55;55.82;101139.22;5017726;28;20037;-59
2023/08/12 09:44:43;;;;;;;2.90;1.70;;;;;;;21.57;55.71;101142.69;5020708;28;20520;-62
2023/08/12 09:47:14;;;;;;;2.50;1.75;;;;;;;21.59;55.82;101146.13;5018625;28;20048;-61
2023/08/12 09:49:42;;;;;;;2.88;1.80;;;;;;;21.61;55.67;101148.69;5018735;28;20404;-58
2023/08/12 09:52:10;;;;;;;2.97;1.80;;;;;;;21.62;55.69;101145.72;5020062;28;20558;-61
2023/08/12 09:54:39;;;;;;;2.75;1.60;;;;;;;21.65;55.65;101148.13;5020787;28;20056;-62
2023/08/12 09:57:09;;;;;;;2.40;1.30;;;;;;;21.68;55.50;101131.00;5017915;28;20500;-62
2023/08/12 09:59:39;;;;;;;2.83;1.52;;;;;;;21.70;55.49;101139.13;5024550;28;20049;-62
2023/08/12 10:02:09;;;;;;;2.90;1.40;;;;;;;21.69;55.12;101132.69;5028467;28;20060;-62
2023/08/12 10:04:42;;;;;;;3.10;1.58;;;;;;;21.74;55.35;101138.56;5027820;28;20045;-66
2023/08/12 10:07:12;;;;;;;2.85;1.40;;;;;;;21.74;55.27;101141.34;5009618;28;20455;-64
2023/08/12 10:09:41;;;;;;;2.53;1.50;;;;;;;21.76;55.38;101130.88;5026858;28;20042;-61
2023/08/12 10:12:10;;;;;;;5.25;1.50;;;;;;;21.79;55.09;101135.16;5026202;28;20046;-62
2023/08/12 10:14:39;;;;;;;2.38;1.33;;;;;;;21.82;55.44;101131.97;5027750;28;20459;-75
2023/08/12 10:17:09;;;;;;;2.22;1.30;;;;;;;21.84;54.94;101130.72;5024623;28;20049;-76
2023/08/12 10:19:45;;;;;;;2.30;1.40;;;;;;;21.87;54.68;101121.94;5004671;28;20045;-75
2023/08/12 10:22:14;;;;;;;2.35;1.20;;;;;;;21.87;54.86;101124.72;5008348;28;20046;-75
2023/08/12 10:24:43;;;;;;;2.10;1.35;;;;;;;21.90;54.35;101123.47;5027620;28;20096;-78
2023/08/12 10:27:14;;;;;;;2.53;1.30;;;;;;;21.93;54.26;101125.88;5004836;28;20052;-77
2023/08/12 10:29:44;;;;;;;2.38;1.30;;;;;;;21.93;54.50;101125.03;5012391;28;20394;-77
2023/08/12 10:32:12;;;;;;;1.83;1.00;;;;;;;21.92;54.36;101124.16;5015074;28;20073;-77
2023/08/12 10:34:43;;;;;;;1.58;0.98;;;;;;;21.95;54.47;101128.44;5010371;28;20074;-77
2023/08/12 10:37:12;;;;;;;2.20;1.05;;;;;;;21.94;54.27;101123.94;5005776;28;20056;-75
2023/08/12 10:39:41;;;;;;;1.95;1.30;;;;;;;21.94;54.26;101119.22;5018799;28;20057;-77
2023/08/12 10:42:09;;;;;;;1.23;0.90;;;;;;;21.95;54.19;101109.81;4999402;28;20073;-77
2023/08/12 10:44:50;;;;;;;1.98;0.98;;;;;;;21.99;53.99;101113.06;5013921;28;20076;-77
2023/08/12 10:47:18;;;;;;;2.17;0.90;;;;;;;21.96;54.19;101103.16;5023174;28;20504;-77
2023/08/12 10:49:51;;;;;;;1.67;0.93;;;;;;;22.00;53.93;101112.88;5024092;28;20033;-77
2023/08/12 10:52:28;;;;;;;;;;;;;;;21.69;54.32;101107.63;5010651;28;20132;-77
2023/08/12 10:55:17;;;;;;;2.17;0.90;;;;;;;21.96;53.85;101116.25;5014226;28;20258;-77
2023/08/12 10:57:45;;;;;;;1.95;1.10;;;;;;;21.99;53.67;101122.28;4991576;28;20053;-77
2023/08/12 11:00:15;;;;;;;2.05;0.93;;;;;;;22.02;54.09;101130.22;4989219;28;20046;-75
2023/08/12 11:02:49;;;;;;;1.65;0.90;;;;;;;22.02;53.93;101124.66;5025686;28;20041;-76
2023/08/12 11:05:20;;;;;;;1.20;0.70;;;;;;;22.00;53.72;101117.56;5011446;28;20042;-77
2023/08/12 11:07:50;;;;;;;1.45;0.88;;;;;;;21.96;53.73;101124.59;5024281;28;20509;-77
2023/08/12 11:10:19;;;;;;;1.92;0.80;;;;;;;21.94;54.09;101121.16;4982740;28;20054;-77
2023/08/12 11:12:54;;;;;;;1.52;0.77;;;;;;;21.90;54.18;101112.31;5008075;28;20042;-77
2023/08/12 11:15:32;;;;;;;0.82;0.52;;;;;;;21.87;54.82;101121.06;5035526;28;20412;-77
2023/08/12 11:18:03;;;;;;;0.93;0.70;;;;;;;21.84;54.92;101113.13;5030977;28;20516;-77
2023/08/12 11:20:34;;;;;;;1.60;0.80;;;;;;;21.82;54.76;101104.97;5030240;28;20042;-77
2023/08/12 11:23:02;;;;;;;1.67;0.90;;;;;;;21.79;54.88;101101.72;5022558;28;20052;-78
2023/08/12 11:25:32;;;;;;;2.33;0.80;;;;;;;21.80;55.08;101098.75;5027419;28;20037;-78
2023/08/12 11:28:01;;;;;;;0.80;0.70;;;;;;;21.78;55.29;101105.56;5027506;28;20049;-77
2023/08/12 11:30:29;;;;;;;1.73;0.77;;;;;;;21.78;55.35;101102.78;5009172;28;20077;-77
2023/08/12 11:33:01;;;;;;;1.55;0.75;;;;;;;21.79;55.70;101097.00;5007665;28;20061;-77
2023/08/12 11:35:29;;;;;;;1.20;0.70;;;;;;;21.80;55.80;101097.88;5003603;28;20042;-78
2023/08/12 11:37:59;;;;;;;1.08;0.60;;;;;;;21.84;56.18;101096.41;5030334;28;20041;-78